Time;durP1;ratioP1;P1;durP2;ratioP2;P2;SDS_P1;SDS_P2;PMS_P1;PMS_P2;Temp;Humidity;BMP_temperature;BMP_pressure;BME280_temperature;BME280_humidity;BME280_pressure;Samples;Min_cycle;Max_cycle;Signal;HPM_P1;HPM_P2
2022/05/27 00:01:23;;;;;;;1.10;1.00;;;;;;;6.56;54.64;96456.81;6271578;28;20415;-69
2022/05/27 00:04:24;;;;;;;2.53;0.73;;;;;;;6.58;54.49;96463.66;6274132;28;20498;-69
2022/05/27 00:07:28;;;;;;;1.27;1.00;;;;;;;6.62;54.02;96470.38;6274357;28;20051;-68
2022/05/27 00:10:34;;;;;;;1.70;0.88;;;;;;;6.65;53.88;96470.25;6274531;28;20496;-69
2022/05/27 00:13:45;;;;;;;1.70;1.08;;;;;;;6.68;54.21;96474.44;6274389;28;20454;-71
2022/05/27 00:16:49;;;;;;;1.13;0.93;;;;;;;6.67;54.20;96473.59;6274522;28;20037;-69
2022/05/27 00:19:55;;;;;;;1.67;1.05;;;;;;;6.71;54.19;96484.75;6273218;28;20044;-69
2022/05/27 00:22:56;;;;;;;;;;;;;;;6.60;53.51;96487.09;6274479;28;20056;-69
2022/05/27 00:26:00;;;;;;;2.42;0.90;;;;;;;6.57;54.56;96488.13;6274023;28;20318;-69
2022/05/27 00:29:04;;;;;;;1.55;1.05;;;;;;;6.52;54.86;96492.75;6274037;28;20041;-69
2022/05/27 00:32:06;;;;;;;0.77;0.77;;;;;;;6.58;54.32;96497.63;6274064;28;20037;-69
2022/05/27 00:35:12;;;;;;;1.35;0.88;;;;;;;6.62;54.19;96496.53;6275643;28;20037;-68
2022/05/27 00:38:17;;;;;;;1.75;0.90;;;;;;;6.69;54.19;96505.72;6282030;28;20040;-69
2022/05/27 00:41:23;;;;;;;1.13;0.80;;;;;;;6.70;53.97;96510.03;6279766;28;20132;-69
2022/05/27 00:44:24;;;;;;;2.13;0.77;;;;;;;6.61;54.15;96510.53;6273475;28;20049;-69
2022/05/27 00:47:29;;;;;;;1.75;1.00;;;;;;;6.64;54.69;96526.06;6273874;28;20044;-69
2022/05/27 00:50:40;;;;;;;1.58;0.70;;;;;;;6.71;54.54;96519.56;6273452;28;20039;-69
2022/05/27 00:53:50;;;;;;;2.22;0.75;;;;;;;6.73;54.38;96529.94;6273701;28;20140;-68
2022/05/27 00:57:01;;;;;;;1.02;0.90;;;;;;;6.72;54.71;96528.25;6273393;28;20605;-69
2022/05/27 01:00:09;;;;;;;0.90;0.60;;;;;;;6.79;54.72;96533.97;6273461;28;20508;-69
2022/05/27 01:03:17;;;;;;;1.00;0.90;;;;;;;6.82;54.77;96539.03;6273339;28;20459;-68
2022/05/27 01:06:21;;;;;;;1.45;0.90;;;;;;;6.86;54.89;96540.56;6273334;28;20621;-69
2022/05/27 01:09:28;;;;;;;1.80;0.77;;;;;;;6.92;54.83;96546.28;6273062;28;20053;-69
2022/05/27 01:12:53;;;;;;;0.70;0.70;;;;;;;7.04;55.03;96543.94;6272017;28;20559;-68
2022/05/27 01:16:05;;;;;;;;;;;;;;;7.04;54.49;96546.53;6273331;28;20045;-69
2022/05/27 01:22:59;;;;;;;1.40;0.60;;;;;;;7.30;53.84;96550.28;6272937;28;20583;-69
2022/05/27 01:26:21;;;;;;;0.60;0.55;;;;;;;7.46;53.77;96561.59;6272585;28;20094;-69
2022/05/27 01:29:58;;;;;;;0.70;0.60;;;;;;;7.55;53.96;96554.97;6272447;28;20045;-69
2022/05/27 01:33:05;;;;;;;;;;;;;;;7.58;53.44;96557.41;6272694;28;20177;-69
2022/05/27 01:36:51;;;;;;;1.00;0.70;;;;;;;7.72;53.17;96561.84;6272944;28;20387;-68
2022/05/27 01:40:12;;;;;;;2.35;0.70;;;;;;;7.84;53.34;96556.75;6271664;28;20049;-70
2022/05/27 01:43:40;;;;;;;1.55;0.65;;;;;;;7.98;52.90;96569.03;6272471;28;20075;-70
2022/05/27 01:46:44;;;;;;;0.77;0.70;;;;;;;8.03;52.86;96564.34;6272208;28;20037;-70
2022/05/27 01:50:06;;;;;;;1.35;0.80;;;;;;;8.08;53.58;96564.09;6272000;28;20044;-69
2022/05/27 01:53:26;;;;;;;1.05;0.77;;;;;;;8.12;53.84;96559.50;6271876;28;20043;-68
2022/05/27 01:56:51;;;;;;;1.50;0.80;;;;;;;8.23;53.48;96564.94;6271742;28;20191;-69
2022/05/27 02:00:04;;;;;;;1.27;0.80;;;;;;;8.38;52.96;96565.78;6271437;28;20419;-69
2022/05/27 02:03:44;;;;;;;1.63;0.60;;;;;;;8.48;52.87;96561.69;6271573;28;20135;-69
2022/05/27 02:07:04;;;;;;;0.70;0.70;;;;;;;8.75;52.52;96567.03;6269988;28;20048;-69
2022/05/27 02:10:15;;;;;;;1.45;0.70;;;;;;;8.90;52.21;96558.19;6271420;28;20060;-70
2022/05/27 02:13:30;;;;;;;1.63;0.98;;;;;;;8.92;52.22;96555.47;6270282;28;20539;-69
2022/05/27 02:16:43;;;;;;;1.10;0.80;;;;;;;9.02;51.84;96550.47;6271427;28;20041;-70
2022/05/27 02:20:05;;;;;;;1.40;0.50;;;;;;;9.16;51.54;96558.31;6271477;28;20041;-69
2022/05/27 02:23:18;;;;;;;1.05;0.80;;;;;;;9.21;51.37;96556.22;6269209;28;20045;-68
2022/05/27 02:26:27;;;;;;;0.85;0.57;;;;;;;9.27;51.08;96555.81;6271167;28;20036;-69
2022/05/27 02:29:30;;;;;;;1.02;0.65;;;;;;;9.37;50.64;96563.94;6270697;28;20045;-69
2022/05/27 02:32:38;;;;;;;0.98;0.60;;;;;;;9.48;50.42;96558.00;6270723;28;20041;-70
2022/05/27 02:35:46;;;;;;;5.15;1.33;;;;;;;9.55;50.46;96569.78;6270601;28;20041;-69
2022/05/27 02:38:48;;;;;;;1.05;0.80;;;;;;;9.68;50.23;96565.41;6246470;28;20049;-68
2022/05/27 02:42:22;;;;;;;0.75;0.68;;;;;;;9.83;49.89;96574.91;6245661;28;20057;-68
2022/05/27 02:45:31;;;;;;;1.20;0.60;;;;;;;9.87;49.79;96565.84;6245627;28;20049;-69
2022/05/27 02:48:42;;;;;;;0.82;0.70;;;;;;;10.12;49.28;96569.47;6245788;28;20053;-71
2022/05/27 02:52:05;;;;;;;0.80;0.65;;;;;;;10.26;48.69;96572.00;6246186;28;20467;-69
2022/05/27 02:55:18;;;;;;;2.30;0.80;;;;;;;10.24;48.50;96579.16;6245940;28;20049;-69
2022/05/27 02:58:22;;;;;;;1.52;0.85;;;;;;;10.29;47.65;96577.06;6245743;28;20053;-72
2022/05/27 03:01:26;;;;;;;0.65;0.47;;;;;;;10.39;47.50;96584.34;6245689;28;20049;-68
2022/05/27 03:04:30;;;;;;;1.95;0.60;;;;;;;10.54;46.86;96597.28;6245632;28;20077;-69
2022/05/27 03:07:43;;;;;;;1.00;0.80;;;;;;;10.56;47.07;96590.13;6244755;28;20076;-69
2022/05/27 03:10:52;;;;;;;4.00;0.77;;;;;;;10.68;47.04;96601.59;6245239;28;20045;-68
2022/05/27 03:14:41;;;;;;;0.70;0.50;;;;;;;10.77;46.75;96587.78;6245015;28;20093;-70
2022/05/27 03:18:16;;;;;;;0.77;0.57;;;;;;;11.04;46.41;96610.50;6242543;28;20049;-71
2022/05/27 03:21:29;;;;;;;1.15;0.80;;;;;;;11.16;46.45;96596.44;6242858;28;20183;-70
2022/05/27 03:24:59;;;;;;;0.90;0.65;;;;;;;11.38;46.19;96602.78;6245664;28;20046;-71
2022/05/27 03:28:07;;;;;;;2.83;0.68;;;;;;;11.34;45.79;96580.25;6244531;28;20550;-69
2022/05/27 03:31:20;;;;;;;1.83;0.60;;;;;;;11.52;44.70;96602.66;6245370;28;20041;-72
2022/05/27 03:34:35;;;;;;;1.05;0.43;;;;;;;11.52;44.42;96602.66;6245360;28;20037;-71
2022/05/27 03:38:04;;;;;;;1.05;0.60;;;;;;;11.62;43.40;96601.00;6250383;28;20056;-71
2022/05/27 03:41:20;;;;;;;1.08;0.40;;;;;;;11.68;42.46;96600.56;6250223;28;20041;-69
2022/05/27 03:44:27;;;;;;;1.48;0.40;;;;;;;11.71;41.84;96598.66;6250027;28;20524;-69
2022/05/27 03:47:32;;;;;;;0.60;0.40;;;;;;;11.81;40.67;96603.13;6249884;28;20045;-69
2022/05/27 03:50:38;;;;;;;1.15;0.30;;;;;;;11.85;40.03;96590.56;6250072;28;20076;-69
2022/05/27 03:57:04;;;;;;;0.50;0.30;;;;;;;11.95;40.17;96596.88;6249576;28;20405;-70
2022/05/27 04:00:07;;;;;;;1.92;0.40;;;;;;;12.10;38.92;96595.72;6250230;28;20060;-69
2022/05/27 04:03:14;;;;;;;0.40;0.40;;;;;;;12.20;38.18;96589.72;6249769;28;20539;-69
2022/05/27 04:06:21;;;;;;;1.10;0.30;;;;;;;12.22;37.34;96587.81;6249912;28;20519;-71
2022/05/27 04:09:26;;;;;;;1.85;0.50;;;;;;;12.38;36.61;96592.78;6249811;28;20045;-70
2022/05/27 04:12:36;;;;;;;0.52;0.20;;;;;;;12.32;37.28;96592.28;6249493;28;20065;-70
2022/05/27 04:15:43;;;;;;;0.98;0.50;;;;;;;12.35;37.36;96599.13;6249663;28;20049;-69
2022/05/27 04:18:49;;;;;;;1.60;0.65;;;;;;;12.34;37.44;96593.03;6249755;28;20053;-69
2022/05/27 04:21:53;;;;;;;0.40;0.40;;;;;;;12.44;37.66;96592.31;6248953;28;20126;-69
2022/05/27 04:24:58;;;;;;;0.73;0.50;;;;;;;12.62;37.29;96592.69;6249132;28;20049;-69
2022/05/27 04:28:02;;;;;;;1.38;0.50;;;;;;;12.63;37.55;96599.66;6248730;28;20060;-68
2022/05/27 04:31:06;;;;;;;1.30;0.30;;;;;;;12.76;37.09;96590.63;6248889;28;20045;-69
2022/05/27 04:34:10;;;;;;;;;;;;;;;12.88;37.45;96585.34;6249231;28;20416;-69
2022/05/27 04:37:16;;;;;;;4.28;0.57;;;;;;;13.64;36.33;96588.97;6249040;28;19920;-69
2022/05/27 04:40:17;;;;;;;;;;;;;;;16.32;32.88;96600.13;6249345;28;20444;-69
2022/05/27 04:43:19;;;;;;;0.57;0.40;;;;;;;19.67;27.86;96597.22;6248843;28;19927;-70
2022/05/27 04:46:20;;;;;;;0.80;0.30;;;;;;;22.44;24.95;96596.66;6247907;28;20057;-70
2022/05/27 04:52:49;;;;;;;0.60;0.50;;;;;;;28.01;19.46;96608.47;6248588;28;20037;-69
2022/05/27 04:55:53;;;;;;;0.73;0.20;;;;;;;29.35;16.99;96617.25;6263799;28;20057;-68
2022/05/27 04:58:57;;;;;;;0.50;0.20;;;;;;;30.80;15.47;96618.34;6248236;28;20053;-69
2022/05/27 05:02:05;;;;;;;0.40;0.40;;;;;;;32.22;14.19;96608.19;6248165;28;20053;-69
2022/05/27 05:05:14;;;;;;;0.75;0.20;;;;;;;33.54;13.45;96607.66;6248421;28;20038;-69
2022/05/27 05:08:34;;;;;;;0.32;0.15;;;;;;;35.50;11.29;96617.56;6248143;28;20045;-69
2022/05/27 05:11:35;;;;;;;1.17;0.22;;;;;;;36.34;11.03;96612.19;6247127;28;20061;-70
2022/05/27 05:14:42;;;;;;;2.00;0.10;;;;;;;37.14;10.62;96617.25;6247922;28;20052;-68
2022/05/27 05:17:46;;;;;;;9.52;0.30;;;;;;;38.66;9.65;96615.09;6248179;28;20500;-69
2022/05/27 05:20:53;;;;;;;0.75;0.22;;;;;;;39.43;8.61;96611.72;6247802;28;20428;-69
2022/05/27 05:23:57;;;;;;;1.35;0.28;;;;;;;40.15;8.27;96607.03;6247794;28;20056;-68
2022/05/27 05:27:01;;;;;;;0.28;0.10;;;;;;;40.66;7.62;96604.72;6248057;28;20465;-67
2022/05/27 05:30:10;;;;;;;0.98;0.10;;;;;;;40.38;7.64;96604.56;6246356;28;20053;-68
2022/05/27 05:33:11;;;;;;;0.28;0.20;;;;;;;39.97;7.48;96599.56;6247674;28;20054;-68
2022/05/27 05:36:19;;;;;;;0.30;0.10;;;;;;;39.54;7.82;96602.25;6247367;28;20052;-69
2022/05/27 05:39:20;;;;;;;1.27;0.10;;;;;;;39.81;8.03;96600.88;6246850;28;20222;-67
2022/05/27 05:42:25;;;;;;;0.50;0.20;;;;;;;39.70;7.94;96595.44;6247179;28;20468;-67
2022/05/27 05:45:31;;;;;;;1.50;0.90;;;;;;;40.79;7.70;96606.72;6247035;28;20168;-68
2022/05/27 05:48:37;;;;;;;1.27;1.08;;;;;;;41.15;7.20;96586.81;6245816;28;20048;-69
2022/05/27 05:51:39;;;;;;;0.38;0.10;;;;;;;40.53;6.98;96598.81;6247060;28;20048;-68
2022/05/27 05:54:45;;;;;;;0.13;0.10;;;;;;;39.63;7.78;96592.22;6247229;28;20037;-69
2022/05/27 05:57:51;;;;;;;0.20;0.20;;;;;;;39.98;7.71;96600.41;6247350;28;20523;-69
2022/05/27 06:00:54;;;;;;;0.15;0.10;;;;;;;40.23;7.46;96593.72;6244819;28;20123;-69
2022/05/27 06:03:55;;;;;;;0.35;0.20;;;;;;;38.20;7.96;96585.13;6247089;28;20129;-68
2022/05/27 06:07:02;;;;;;;1.30;0.40;;;;;;;36.52;8.85;96572.50;6246794;28;20508;-71
2022/05/27 06:10:07;;;;;;;1.02;0.40;;;;;;;35.79;9.62;96565.19;6246267;28;20515;-71
2022/05/27 06:13:12;;;;;;;0.70;0.30;;;;;;;35.10;9.68;96574.34;6245382;28;20045;-68
2022/05/27 06:16:19;;;;;;;1.33;0.30;;;;;;;33.34;10.74;96569.19;6246636;28;20053;-70
2022/05/27 06:19:25;;;;;;;1.35;0.20;;;;;;;33.51;10.64;96578.13;6246412;28;20136;-68
2022/05/27 06:22:31;;;;;;;0.20;0.20;;;;;;;35.49;10.33;96579.53;6246516;28;20049;-69
2022/05/27 06:25:37;;;;;;;1.17;0.10;;;;;;;37.27;8.38;96578.28;6246603;28;20128;-69
2022/05/27 06:35:32;;;;;;;0.55;0.22;;;;;;;34.22;10.80;96563.72;6245848;28;20410;-68
2022/05/27 06:38:39;;;;;;;0.70;0.50;;;;;;;34.53;10.78;96564.03;6245844;28;20516;-68
2022/05/27 06:41:43;;;;;;;0.95;0.38;;;;;;;35.94;9.90;96556.19;6246277;28;20045;-68
2022/05/27 06:44:49;;;;;;;0.30;0.10;;;;;;;36.41;9.40;96553.31;6245971;28;20512;-71
2022/05/27 06:47:58;;;;;;;0.38;0.20;;;;;;;35.41;9.64;96553.47;6245475;28;20045;-69
2022/05/27 06:51:06;;;;;;;0.70;0.40;;;;;;;35.23;9.91;96554.75;6245581;28;20052;-69
2022/05/27 06:54:15;;;;;;;1.15;0.50;;;;;;;35.61;9.84;96558.25;6245918;28;20049;-71
2022/05/27 06:57:22;;;;;;;0.20;0.10;;;;;;;36.43;9.77;96561.25;6245816;28;20069;-69
2022/05/27 07:00:26;;;;;;;1.15;0.30;;;;;;;37.98;8.59;96566.28;6245745;28;20057;-67
2022/05/27 07:03:37;;;;;;;1.30;0.40;;;;;;;38.66;8.60;96560.09;6245338;28;20057;-69
2022/05/27 07:06:46;;;;;;;0.75;0.35;;;;;;;39.36;8.04;96556.22;6244855;28;20057;-69
2022/05/27 07:09:50;;;;;;;0.90;0.20;;;;;;;38.80;8.68;96555.56;6244968;28;20049;-69
2022/05/27 07:12:53;;;;;;;0.30;0.22;;;;;;;38.60;8.57;96555.75;6260063;28;20532;-69
2022/05/27 07:15:57;;;;;;;0.32;0.20;;;;;;;38.55;8.54;96569.53;6244738;28;20069;-68
2022/05/27 07:19:00;;;;;;;0.25;0.20;;;;;;;37.89;9.26;96574.25;6245842;28;20056;-69
2022/05/27 07:22:09;;;;;;;0.40;0.35;;;;;;;38.17;8.57;96571.97;6245537;28;20428;-68
2022/05/27 07:25:13;;;;;;;0.52;0.35;;;;;;;38.52;8.27;96564.59;6245409;28;20067;-68
2022/05/27 07:28:16;;;;;;;0.50;0.20;;;;;;;38.77;8.25;96571.84;6245375;28;20076;-69
2022/05/27 07:31:23;;;;;;;2.17;0.22;;;;;;;40.69;7.31;96576.56;6245724;28;20075;-70
2022/05/27 07:34:26;;;;;;;2.70;1.63;;;;;;;42.43;6.81;96568.53;6245151;28;20559;-69
2022/05/27 07:37:31;;;;;;;0.40;0.20;;;;;;;42.49;6.12;96560.91;6245406;28;20050;-69
2022/05/27 07:40:35;;;;;;;0.30;0.20;;;;;;;43.18;5.77;96567.00;6245357;28;20528;-69
2022/05/27 07:43:37;;;;;;;1.77;0.30;;;;;;;43.92;5.47;96568.28;6245087;28;20052;-69
2022/05/27 07:46:41;;;;;;;0.28;0.20;;;;;;;43.31;5.55;96558.91;6245030;28;20052;-68
2022/05/27 07:49:48;;;;;;;0.30;0.30;;;;;;;43.18;5.87;96550.38;6245436;28;20385;-68
2022/05/27 07:52:50;;;;;;;2.15;0.25;;;;;;;43.62;5.59;96553.34;6245034;28;20155;-69
2022/05/27 07:55:54;;;;;;;0.55;0.30;;;;;;;42.55;6.03;96554.13;6244385;28;20057;-69
2022/05/27 07:58:55;;;;;;;0.20;0.20;;;;;;;42.63;6.12;96556.16;6244943;28;20140;-70
2022/05/27 08:02:01;;;;;;;0.10;0.10;;;;;;;42.83;5.92;96555.69;6245011;28;20410;-69
2022/05/27 08:05:07;;;;;;;0.95;0.20;;;;;;;41.88;6.51;96547.31;6245118;28;20042;-68
2022/05/27 08:08:09;;;;;;;0.88;0.25;;;;;;;43.15;6.10;96562.09;6245064;28;20123;-68
2022/05/27 08:11:12;;;;;;;0.70;0.47;;;;;;;43.39;6.09;96552.59;6244726;28;20045;-70
2022/05/27 08:14:19;;;;;;;0.55;0.17;;;;;;;44.96;5.09;96546.19;6245407;28;20085;-69
2022/05/27 08:17:23;;;;;;;1.27;0.40;;;;;;;44.36;5.40;96549.78;6245457;28;20588;-68
2022/05/27 08:20:30;;;;;;;0.98;0.20;;;;;;;43.13;5.93;96539.41;6244793;28;20045;-68
2022/05/27 08:23:34;;;;;;;1.60;0.50;;;;;;;42.78;6.17;96539.22;6247879;28;20054;-70
2022/05/27 08:26:43;;;;;;;0.55;0.13;;;;;;;41.16;6.50;96527.72;6249373;28;20049;-69
2022/05/27 08:29:48;;;;;;;1.40;0.30;;;;;;;41.92;6.94;96540.06;6249236;28;20103;-69
2022/05/27 08:32:55;;;;;;;1.33;0.40;;;;;;;42.93;5.98;96537.19;6248908;28;20045;-69
2022/05/27 08:39:16;;;;;;;0.63;0.30;;;;;;;41.20;6.65;96526.81;6248720;28;20057;-69
2022/05/27 08:42:17;;;;;;;;;;;;;;;42.87;6.10;96533.72;6248843;28;20052;-69
2022/05/27 08:45:32;;;;;;;0.43;0.30;;;;;;;43.04;5.85;96525.53;6247493;28;19974;-68
2022/05/27 08:48:42;;;;;;;1.05;0.20;;;;;;;39.87;7.23;96522.56;6248710;28;20513;-67
2022/05/27 08:52:47;;;;;;;1.10;0.33;;;;;;;39.91;7.59;96520.84;6248956;28;20049;-68
2022/05/27 08:59:27;;;;;;;0.38;0.30;;;;;;;41.37;6.93;96511.59;6247957;28;20049;-67
2022/05/27 09:02:55;;;;;;;0.63;0.38;;;;;;;42.81;6.44;96512.88;6248557;28;20045;-68
2022/05/27 09:06:04;;;;;;;0.20;0.20;;;;;;;42.62;6.21;96510.25;6248394;28;20041;-68
2022/05/27 09:09:12;;;;;;;0.75;0.20;;;;;;;41.25;6.60;96501.91;6248307;28;20056;-68
2022/05/27 09:12:40;;;;;;;0.45;0.20;;;;;;;39.84;7.66;96490.09;6247948;28;20584;-68
2022/05/27 09:16:20;;;;;;;1.75;0.40;;;;;;;41.15;7.26;96484.72;6248009;28;20142;-68
2022/05/27 09:19:46;;;;;;;0.35;0.20;;;;;;;41.04;7.13;96495.91;6247592;28;20049;-68
2022/05/27 09:23:25;;;;;;;0.50;0.35;;;;;;;41.53;6.73;96504.66;6248106;28;20041;-68
2022/05/27 09:26:40;;;;;;;0.60;0.30;;;;;;;41.57;6.88;96491.06;6248028;28;20523;-68
2022/05/27 09:29:56;;;;;;;0.43;0.20;;;;;;;39.25;7.88;96495.72;6247502;28;20049;-69
2022/05/27 09:33:04;;;;;;;0.82;0.50;;;;;;;36.62;9.31;96474.69;6247411;28;20045;-68
2022/05/27 09:36:19;;;;;;;0.55;0.20;;;;;;;35.80;9.97;96462.00;6247729;28;20088;-67
2022/05/27 09:39:27;;;;;;;1.08;0.28;;;;;;;36.40;9.65;96469.44;6247320;28;20427;-69
2022/05/27 09:42:42;;;;;;;1.85;0.22;;;;;;;36.27;9.83;96461.00;6247041;28;20504;-68
2022/05/27 09:45:53;;;;;;;0.95;0.20;;;;;;;36.40;9.97;96457.69;6247261;28;20041;-68
2022/05/27 09:49:00;;;;;;;0.20;0.20;;;;;;;37.29;8.93;96458.13;6247226;28;20045;-67
2022/05/27 09:52:05;;;;;;;1.92;0.30;;;;;;;37.86;9.02;96450.44;6247478;28;20045;-68
2022/05/27 09:55:40;;;;;;;0.50;0.30;;;;;;;37.91;9.12;96455.91;6246997;28;20041;-68
2022/05/27 09:58:47;;;;;;;1.00;0.35;;;;;;;35.94;9.89;96441.19;6247010;28;20455;-67
2022/05/27 10:01:49;;;;;;;2.05;0.63;;;;;;;35.70;10.10;96440.91;6246665;28;20448;-69
2022/05/27 10:05:13;;;;;;;1.17;0.40;;;;;;;36.53;10.25;96451.69;6246940;28;20045;-68
2022/05/27 10:08:53;;;;;;;0.22;0.20;;;;;;;35.93;9.94;96447.78;6246941;28;20049;-68
2022/05/27 10:12:02;;;;;;;1.25;0.20;;;;;;;34.82;10.56;96434.22;6245524;28;20049;-69
2022/05/27 10:15:04;;;;;;;0.47;0.22;;;;;;;35.38;10.36;96438.31;6246713;28;20057;-69
2022/05/27 10:18:22;;;;;;;0.47;0.47;;;;;;;35.14;10.77;96432.47;6246460;28;20045;-68
2022/05/27 10:21:31;;;;;;;1.00;0.22;;;;;;;33.62;11.42;96444.63;6246604;28;20412;-68
2022/05/27 10:24:44;;;;;;;0.20;0.17;;;;;;;33.20;11.76;96431.56;6246895;28;20037;-68
2022/05/27 10:27:55;;;;;;;1.25;0.20;;;;;;;33.42;11.60;96440.56;6246294;28;20512;-69
2022/05/27 10:31:16;;;;;;;0.98;0.20;;;;;;;32.71;12.11;96426.00;6246201;28;20105;-69
2022/05/27 10:34:39;;;;;;;0.20;0.13;;;;;;;34.22;11.59;96426.38;6246380;28;20057;-68
2022/05/27 10:37:49;;;;;;;1.38;0.25;;;;;;;35.07;11.09;96432.72;6246344;28;20053;-68
2022/05/27 10:41:21;;;;;;;0.47;0.30;;;;;;;34.84;11.12;96429.28;6245953;28;20049;-68
2022/05/27 10:44:47;;;;;;;0.20;0.20;;;;;;;33.04;12.02;96431.38;6245391;28;20041;-68
2022/05/27 10:47:51;;;;;;;1.33;0.47;;;;;;;32.13;12.43;96437.09;6246137;28;20523;-68
2022/05/27 10:51:34;;;;;;;0.52;0.52;;;;;;;30.79;13.70;96429.25;6245580;28;20041;-68
2022/05/27 10:55:16;;;;;;;0.73;0.30;;;;;;;30.76;13.77;96433.25;6243485;28;20049;-68
2022/05/27 11:02:12;;;;;;;0.85;0.30;;;;;;;30.07;13.78;96426.75;6243907;28;20055;-69
2022/05/27 11:05:24;;;;;;;1.75;0.30;;;;;;;30.62;13.93;96437.28;6245368;28;20495;-68
2022/05/27 11:08:30;;;;;;;1.95;0.30;;;;;;;30.62;13.45;96423.72;6245182;28;20045;-69
2022/05/27 11:11:47;;;;;;;0.90;0.20;;;;;;;30.52;14.00;96439.78;6245078;28;20049;-68
2022/05/27 11:15:23;;;;;;;0.22;0.20;;;;;;;29.65;14.64;96422.16;6245462;28;20049;-69
2022/05/27 11:18:29;;;;;;;0.82;0.20;;;;;;;29.73;15.15;96421.84;6243746;28;20080;-68
2022/05/27 11:22:13;;;;;;;0.65;0.20;;;;;;;30.14;14.45;96439.13;6245187;28;20064;-69
2022/05/27 11:25:36;;;;;;;0.32;0.32;;;;;;;28.90;15.28;96422.44;6243563;28;20053;-68
2022/05/27 11:28:57;;;;;;;0.52;0.30;;;;;;;28.01;16.61;96423.75;6245299;28;20145;-69
2022/05/27 11:32:27;;;;;;;6.50;3.07;;;;;;;28.81;15.68;96423.81;6245355;28;20045;-68
2022/05/27 11:35:37;;;;;;;1.10;0.43;;;;;;;28.53;15.85;96433.25;6245208;28;20041;-68
2022/05/27 11:39:17;;;;;;;0.20;0.20;;;;;;;28.14;16.00;96416.34;6245215;28;20056;-68
2022/05/27 11:42:32;;;;;;;1.50;0.30;;;;;;;28.16;16.35;96427.75;6244867;28;20435;-68
2022/05/27 11:45:35;;;;;;;0.82;0.30;;;;;;;28.06;16.03;96427.44;6245146;28;20432;-70
2022/05/27 11:49:00;;;;;;;1.60;0.40;;;;;;;27.18;16.41;96420.06;6244594;28;20048;-69
2022/05/27 11:52:23;;;;;;;3.20;0.40;;;;;;;26.86;17.12;96409.19;6244679;28;20668;-69
2022/05/27 11:55:58;;;;;;;0.50;0.30;;;;;;;26.61;17.37;96405.50;6245092;28;20041;-68
2022/05/27 11:59:58;;;;;;;2.30;0.38;;;;;;;26.41;17.95;96419.84;6248809;28;20041;-68
2022/05/27 12:03:09;;;;;;;1.00;0.43;;;;;;;26.23;18.22;96398.09;6235875;28;20053;-67
2022/05/27 12:06:19;;;;;;;4.22;0.65;;;;;;;26.34;18.75;96413.63;6246945;28;20057;-68
2022/05/27 12:09:30;;;;;;;0.98;0.40;;;;;;;26.33;18.48;96395.78;6249275;28;20057;-67
2022/05/27 12:12:46;;;;;;;1.48;0.40;;;;;;;26.29;18.25;96381.06;6249177;28;20053;-67
2022/05/27 12:15:57;;;;;;;2.10;1.35;;;;;;;26.54;18.62;96391.22;6249418;28;20500;-67
2022/05/27 12:19:07;;;;;;;1.20;0.90;;;;;;;26.46;18.33;96410.28;6248890;28;20061;-67
2022/05/27 12:22:22;;;;;;;0.50;0.40;;;;;;;26.24;18.17;96396.22;6248477;28;20107;-67
2022/05/27 12:25:30;;;;;;;1.90;1.50;;;;;;;25.45;19.03;96385.19;6249206;28;20038;-68
2022/05/27 12:28:40;;;;;;;2.35;0.73;;;;;;;25.25;19.62;96370.84;6248901;28;20416;-68
2022/05/27 12:31:47;;;;;;;1.95;0.40;;;;;;;25.38;19.51;96373.56;6248392;28;20045;-68
2022/05/27 12:34:49;;;;;;;0.82;0.60;;;;;;;25.36;18.99;96391.78;6248970;28;20041;-68
2022/05/27 12:38:01;;;;;;;1.92;1.00;;;;;;;25.07;19.87;96374.91;6248809;28;20037;-69
2022/05/27 12:41:09;;;;;;;1.40;0.88;;;;;;;24.89;20.00;96371.97;6248581;28;20508;-68
2022/05/27 12:44:19;;;;;;;1.98;0.80;;;;;;;24.93;19.90;96373.22;6248303;28;20033;-68
2022/05/27 12:47:36;;;;;;;1.08;0.80;;;;;;;24.91;19.86;96375.31;6248535;28;20114;-68
2022/05/27 12:50:45;;;;;;;1.63;0.70;;;;;;;24.81;19.57;96380.22;6248491;28;20049;-68
2022/05/27 12:53:54;;;;;;;0.85;0.60;;;;;;;24.22;19.72;96369.94;6263643;28;20049;-68
2022/05/27 13:03:57;;;;;;;1.08;0.98;;;;;;;23.23;21.77;96379.63;6247993;28;20528;-68
2022/05/27 13:07:05;;;;;;;0.63;0.55;;;;;;;22.38;22.22;96370.34;6246812;28;20049;-68
2022/05/27 13:10:18;;;;;;;0.45;0.32;;;;;;;21.77;22.93;96372.31;6248086;28;20505;-68
2022/05/27 13:13:29;;;;;;;2.22;0.90;;;;;;;21.52;23.81;96369.84;6247955;28;20061;-67
2022/05/27 13:16:36;;;;;;;1.13;0.70;;;;;;;21.43;24.17;96367.41;6248093;28;20041;-68
2022/05/27 13:19:51;;;;;;;2.60;0.98;;;;;;;21.61;24.41;96364.44;6248039;28;20060;-68
2022/05/27 13:23:10;;;;;;;1.50;0.63;;;;;;;21.93;23.44;96369.47;6248063;28;20068;-70
2022/05/27 13:26:32;;;;;;;1.75;1.20;;;;;;;22.31;23.60;96377.47;6247921;28;20127;-67
2022/05/27 13:30:07;;;;;;;1.02;0.63;;;;;;;22.76;22.95;96375.59;6247811;28;20148;-67
2022/05/27 13:33:12;;;;;;;2.45;0.80;;;;;;;23.03;22.54;96381.28;6247208;28;20567;-67
2022/05/27 13:36:20;;;;;;;0.70;0.40;;;;;;;22.92;22.72;96366.47;6247647;28;20037;-68
2022/05/27 13:39:29;;;;;;;0.60;0.50;;;;;;;22.48;23.14;96361.22;6247456;28;20049;-68
2022/05/27 13:42:41;;;;;;;2.35;0.65;;;;;;;22.23;23.87;96374.88;6247349;28;20057;-69
2022/05/27 13:45:58;;;;;;;1.73;0.60;;;;;;;22.17;24.24;96391.69;6247202;28;20500;-69
2022/05/27 13:49:25;;;;;;;3.28;0.82;;;;;;;21.80;24.60;96373.78;6247160;28;20045;-69
2022/05/27 13:52:36;;;;;;;1.00;0.70;;;;;;;21.52;24.94;96375.22;6246969;28;20516;-68
2022/05/27 13:55:47;;;;;;;0.70;0.70;;;;;;;21.24;25.24;96372.22;6247480;28;20187;-67
2022/05/27 13:58:58;;;;;;;1.67;1.10;;;;;;;21.17;25.74;96367.75;6247337;28;20124;-68
2022/05/27 14:02:15;;;;;;;1.77;1.00;;;;;;;21.39;25.53;96361.59;6247056;28;20533;-68
2022/05/27 14:05:23;;;;;;;0.75;0.75;;;;;;;21.38;25.64;96365.28;6246970;28;20080;-68
2022/05/27 14:08:43;;;;;;;3.10;0.95;;;;;;;21.17;25.93;96373.09;6246631;28;20060;-68
2022/05/27 14:11:52;;;;;;;1.13;0.80;;;;;;;21.07;26.52;96367.97;6246645;28;20503;-68
2022/05/27 14:15:00;;;;;;;2.17;0.88;;;;;;;21.22;26.28;96373.41;6246406;28;20041;-68
2022/05/27 14:18:04;;;;;;;2.85;1.50;;;;;;;21.28;26.32;96383.38;6246578;28;20512;-69
2022/05/27 14:24:36;;;;;;;1.15;0.63;;;;;;;21.83;26.25;96374.28;6246370;28;20053;-69
2022/05/27 14:27:43;;;;;;;1.88;0.63;;;;;;;21.65;26.30;96365.72;6246012;28;20059;-67
2022/05/27 14:30:54;;;;;;;1.40;0.80;;;;;;;21.48;26.48;96373.06;6246379;28;20269;-69
2022/05/27 14:34:03;;;;;;;1.20;0.60;;;;;;;21.56;26.33;96366.81;6246397;28;20049;-70
2022/05/27 14:37:14;;;;;;;1.23;0.80;;;;;;;21.60;26.38;96379.66;6246292;28;20045;-68
2022/05/27 14:40:22;;;;;;;3.17;0.77;;;;;;;20.97;27.12;96368.19;6246165;28;20057;-68
2022/05/27 14:43:47;;;;;;;2.05;0.80;;;;;;;20.73;27.97;96371.84;6246089;28;20049;-69
2022/05/27 14:47:11;;;;;;;1.73;1.35;;;;;;;20.57;28.28;96378.09;6246655;28;20138;-70
2022/05/27 14:50:18;;;;;;;1.60;1.50;;;;;;;20.36;28.95;96385.84;6245632;28;20128;-68
2022/05/27 14:53:26;;;;;;;2.20;1.60;;;;;;;20.16;29.81;96375.56;6246021;28;20064;-69
2022/05/27 14:56:28;;;;;;;2.80;1.88;;;;;;;20.15;30.48;96368.53;6246128;28;20049;-68
2022/05/27 14:59:35;;;;;;;3.03;2.40;;;;;;;19.98;30.65;96377.59;6245721;28;20048;-69
2022/05/27 15:02:39;;;;;;;2.50;2.30;;;;;;;19.87;31.05;96385.97;6245768;28;20045;-69
2022/05/27 15:05:45;;;;;;;2.95;2.00;;;;;;;19.53;31.82;96384.28;6245540;28;20041;-68
2022/05/27 15:09:10;;;;;;;2.00;1.45;;;;;;;19.43;32.29;96389.81;6245438;28;20128;-67
2022/05/27 15:12:25;;;;;;;2.15;1.65;;;;;;;19.22;32.46;96387.63;6245307;28;20049;-68
2022/05/27 15:15:34;;;;;;;2.05;1.50;;;;;;;19.06;33.00;96382.28;6245492;28;20500;-68
2022/05/27 15:18:47;;;;;;;4.20;2.03;;;;;;;18.92;33.32;96393.56;6245370;28;20045;-68
2022/05/27 15:22:02;;;;;;;2.75;1.00;;;;;;;18.97;33.59;96388.59;6245233;28;20057;-69
2022/05/27 15:25:09;;;;;;;1.77;1.35;;;;;;;18.74;34.14;96397.19;6245453;28;20049;-68
2022/05/27 15:35:15;;;;;;;2.63;1.70;;;;;;;18.28;35.50;96401.13;6250149;28;20046;-68
2022/05/27 15:38:24;;;;;;;3.85;1.80;;;;;;;18.10;36.16;96406.53;6249986;28;20052;-69
2022/05/27 15:41:25;;;;;;;1.50;1.30;;;;;;;17.94;36.40;96408.09;6250185;28;20045;-68
2022/05/27 15:44:27;;;;;;;1.30;1.20;;;;;;;17.91;36.57;96396.94;6250022;28;20040;-67
2022/05/27 15:47:31;;;;;;;2.00;1.55;;;;;;;17.72;37.27;96405.94;6249957;28;20038;-68
2022/05/27 15:50:37;;;;;;;2.72;1.70;;;;;;;17.50;37.54;96410.75;6249681;28;20045;-71
2022/05/27 15:53:40;;;;;;;2.75;1.50;;;;;;;17.40;37.96;96420.63;6249770;28;20053;-69